Framingham, MA (01705)

10:10 PM EDT on August 20, 2014 (GMT -0400)
Nobscot-Amy Road | Change Station
CLOSE
Current Station
Personal Weather Station
Location: Framingham, MA
Elevation: 200 ft
Nearby Weather Stations

Elev 200 ft 42.32 °N, 71.44 °W | Updated 14 minutes ago

Clear
Clear
58.3 °F
Feels Like 58.3 °F
N
0.0
Wind Variable Wind from NNW

Today
High -- | Low -- °F
--% Chance of Precip.
Yesterday
High -- | Low -- °F
Precip. -- in
5:58 AM 7:39 PM
Waning Crescent, 17% visible
Pressure 30.08 in
Visibility 10.0 miles
Clouds Clear
Dew Point 51 °F
Humidity 76%
Rainfall 0.00 in
Snow Depth Not available.
UV 0 out of 12
Pollen 8.90 out of 12
Air Quality Not available.
Flu Activity Not available.
METAR KBED 210156Z 00000KT 10SM CLR 15/12 A3004 RMK AO2 SLP185 T01500122

More Conditions Fewer Conditions

Pressure 30.08 in
Visibility 10.0 miles
Clouds Clear
Dew Point 51 °F
Humidity 76%
Rainfall 0.00 in
Snow Depth Not available.
UV 0 out of 12
Pollen 8.90 out of 12
Air Quality Not available.
Flu Activity Not available.
METAR KBED 210156Z 00000KT 10SM CLR 15/12 A3004 RMK AO2 SLP185 T01500122

More Conditions Fewer Conditions

10-Day Weather Forecast

Almanac

Astronomy

Aug. 20, 2014 Rise Set
Actual Time 5:58 AM EDT 7:39 PM EDT
Civil Twilight 5:28 AM EDT 8:08 PM EDT
Nautical Twilight 4:52 AM EDT 8:44 PM EDT
Astronomical Twilight 4:13 AM EDT 9:23 PM EDT
Moon 1:33 AM EDT (8/20) 4:23 PM EDT (8/20)
Length of Visible Light 14h 40m
Length of Day
13h 40m
Tomorrow will be 2m 37s shorter.
Waning Crescent, 17% of the Moon is Illuminated
Today
Waning Crescent
Aug 25
New
Sep 2
First Quarter
Sep 8
Full
Sep 15
Last Quarter

Today's Extremes

State Highs State Lows

Community

WunderPhotos

Upload Photos

1,745,853 photos uploaded!

WunderBlogs® & News

By Dr. Jeff Masters
Director of Meteorology, Weather Underground
By Kari Strenfel
Meteorologist, Weather Underground
By Christopher C. Burt
Weather Historian, Weather Underground
August 20, 2014
August 20, 2014
August 20, 2014

Nearby

Air Quality

  Air Quality AQ Index Pollutant
Wednesday Good
PM2.5
Wednesday Good
OZONE
Thursday Good
PM2.5
Thursday Good
OZONE

Snow Depth

Station Depth Elevation
No new snow has been reported.

Earthquake Activity

City Distance Mag. Time & Date
Deep River Center, Connecticut 86 miles 2.7 3:09 AM EDT
2014-08-14
Minimum magnitude displayed is 2.5.

Coastal Water Temperatures

Place Temperature
Boston, MA 64.0 °F
Providence, RI 75.0 °F
Fall River, MA 75.0 °F
Conimicut Light, RI 73.9 °F

Nearby Weather Stations